sensor_id;sensor_type;location;lat;lon;timestamp;P1;durP1;ratioP1;P2;durP2;ratioP2
69822;SDS011;57119;52.516;13.508;2024-01-30T00:00:54;19.30;;;6.90;;
69822;SDS011;57119;52.516;13.508;2024-01-30T00:03:19;17.73;;;6.03;;
69822;SDS011;57119;52.516;13.508;2024-01-30T00:05:44;18.10;;;6.43;;
69822;SDS011;57119;52.516;13.508;2024-01-30T00:08:10;13.30;;;6.20;;
69822;SDS011;57119;52.516;13.508;2024-01-30T00:10:35;16.63;;;6.13;;
69822;SDS011;57119;52.516;13.508;2024-01-30T00:13:01;17.40;;;6.50;;
69822;SDS011;57119;52.516;13.508;2024-01-30T00:15:27;15.77;;;6.25;;
69822;SDS011;57119;52.516;13.508;2024-01-30T00:17:53;16.23;;;6.15;;
69822;SDS011;57119;52.516;13.508;2024-01-30T00:20:18;13.00;;;5.97;;
69822;SDS011;57119;52.516;13.508;2024-01-30T00:22:44;16.48;;;6.30;;
69822;SDS011;57119;52.516;13.508;2024-01-30T00:25:09;14.53;;;6.27;;
69822;SDS011;57119;52.516;13.508;2024-01-30T00:27:34;16.30;;;5.60;;
69822;SDS011;57119;52.516;13.508;2024-01-30T00:30:00;13.63;;;6.17;;
69822;SDS011;57119;52.516;13.508;2024-01-30T00:32:25;16.73;;;6.33;;
69822;SDS011;57119;52.516;13.508;2024-01-30T00:34:50;16.07;;;6.13;;
69822;SDS011;57119;52.516;13.508;2024-01-30T00:37:16;15.40;;;6.15;;
69822;SDS011;57119;52.516;13.508;2024-01-30T00:39:41;16.90;;;6.00;;
69822;SDS011;57119;52.516;13.508;2024-01-30T00:42:07;16.63;;;7.07;;
69822;SDS011;57119;52.516;13.508;2024-01-30T00:44:34;19.77;;;6.97;;
69822;SDS011;57119;52.516;13.508;2024-01-30T00:47:02;19.58;;;6.60;;
69822;SDS011;57119;52.516;13.508;2024-01-30T00:49:28;16.92;;;6.18;;
69822;SDS011;57119;52.516;13.508;2024-01-30T00:51:53;16.77;;;5.93;;
69822;SDS011;57119;52.516;13.508;2024-01-30T00:54:18;15.03;;;5.67;;
69822;SDS011;57119;52.516;13.508;2024-01-30T00:56:44;15.03;;;5.67;;
69822;SDS011;57119;52.516;13.508;2024-01-30T00:59:09;12.10;;;5.53;;
69822;SDS011;57119;52.516;13.508;2024-01-30T01:01:35;15.13;;;6.43;;
69822;SDS011;57119;52.516;13.508;2024-01-30T01:04:01;15.60;;;6.03;;
69822;SDS011;57119;52.516;13.508;2024-01-30T01:06:27;16.92;;;6.28;;
69822;SDS011;57119;52.516;13.508;2024-01-30T01:08:52;18.50;;;6.30;;
69822;SDS011;57119;52.516;13.508;2024-01-30T01:11:18;13.13;;;5.87;;
69822;SDS011;57119;52.516;13.508;2024-01-30T01:13:43;13.87;;;6.03;;
69822;SDS011;57119;52.516;13.508;2024-01-30T01:16:08;16.20;;;5.10;;
69822;SDS011;57119;52.516;13.508;2024-01-30T01:18:33;13.63;;;5.75;;
69822;SDS011;57119;52.516;13.508;2024-01-30T01:20:59;14.83;;;5.23;;
69822;SDS011;57119;52.516;13.508;2024-01-30T01:23:25;15.57;;;6.57;;
69822;SDS011;57119;52.516;13.508;2024-01-30T01:25:50;14.57;;;5.82;;
69822;SDS011;57119;52.516;13.508;2024-01-30T01:28:16;16.80;;;5.30;;
69822;SDS011;57119;52.516;13.508;2024-01-30T01:30:41;16.73;;;6.20;;
69822;SDS011;57119;52.516;13.508;2024-01-30T01:33:06;16.87;;;5.20;;
69822;SDS011;57119;52.516;13.508;2024-01-30T01:35:32;14.63;;;5.60;;
69822;SDS011;57119;52.516;13.508;2024-01-30T01:37:57;14.73;;;5.70;;
69822;SDS011;57119;52.516;13.508;2024-01-30T01:40:25;12.45;;;5.07;;
69822;SDS011;57119;52.516;13.508;2024-01-30T01:42:52;14.73;;;5.47;;
69822;SDS011;57119;52.516;13.508;2024-01-30T01:45:18;13.32;;;4.97;;
69822;SDS011;57119;52.516;13.508;2024-01-30T01:47:44;14.50;;;5.27;;
69822;SDS011;57119;52.516;13.508;2024-01-30T01:50:13;16.95;;;4.95;;
69822;SDS011;57119;52.516;13.508;2024-01-30T01:52:43;13.45;;;5.40;;
69822;SDS011;57119;52.516;13.508;2024-01-30T01:55:09;15.32;;;5.82;;
69822;SDS011;57119;52.516;13.508;2024-01-30T01:57:36;13.27;;;5.22;;
69822;SDS011;57119;52.516;13.508;2024-01-30T02:00:01;12.03;;;5.37;;
69822;SDS011;57119;52.516;13.508;2024-01-30T02:02:28;17.83;;;5.60;;
69822;SDS011;57119;52.516;13.508;2024-01-30T02:04:56;15.48;;;5.50;;
69822;SDS011;57119;52.516;13.508;2024-01-30T02:07:22;13.15;;;5.43;;
69822;SDS011;57119;52.516;13.508;2024-01-30T02:09:47;11.97;;;4.73;;
69822;SDS011;57119;52.516;13.508;2024-01-30T02:12:13;12.17;;;4.97;;
69822;SDS011;57119;52.516;13.508;2024-01-30T02:14:48;12.30;;;5.03;;
69822;SDS011;57119;52.516;13.508;2024-01-30T02:17:14;15.20;;;6.05;;
69822;SDS011;57119;52.516;13.508;2024-01-30T02:19:41;14.38;;;5.13;;
69822;SDS011;57119;52.516;13.508;2024-01-30T02:22:06;15.13;;;4.97;;
69822;SDS011;57119;52.516;13.508;2024-01-30T02:24:32;13.90;;;5.32;;
69822;SDS011;57119;52.516;13.508;2024-01-30T02:26:58;15.73;;;5.90;;
69822;SDS011;57119;52.516;13.508;2024-01-30T02:29:23;13.43;;;5.17;;
69822;SDS011;57119;52.516;13.508;2024-01-30T02:31:49;14.07;;;5.05;;
69822;SDS011;57119;52.516;13.508;2024-01-30T02:34:14;13.90;;;5.33;;
69822;SDS011;57119;52.516;13.508;2024-01-30T02:36:42;14.50;;;5.67;;
69822;SDS011;57119;52.516;13.508;2024-01-30T02:39:08;12.35;;;5.13;;
69822;SDS011;57119;52.516;13.508;2024-01-30T02:41:34;18.08;;;5.53;;
69822;SDS011;57119;52.516;13.508;2024-01-30T02:44:00;14.90;;;5.07;;
69822;SDS011;57119;52.516;13.508;2024-01-30T02:46:25;13.77;;;5.00;;
69822;SDS011;57119;52.516;13.508;2024-01-30T02:48:51;14.00;;;4.80;;
69822;SDS011;57119;52.516;13.508;2024-01-30T02:51:16;13.47;;;5.40;;
69822;SDS011;57119;52.516;13.508;2024-01-30T02:53:42;13.87;;;4.83;;
69822;SDS011;57119;52.516;13.508;2024-01-30T02:56:07;14.20;;;5.73;;
69822;SDS011;57119;52.516;13.508;2024-01-30T02:58:34;12.93;;;5.05;;
69822;SDS011;57119;52.516;13.508;2024-01-30T03:01:01;16.05;;;5.55;;
69822;SDS011;57119;52.516;13.508;2024-01-30T03:03:26;15.13;;;6.93;;
69822;SDS011;57119;52.516;13.508;2024-01-30T03:05:51;13.90;;;6.67;;
69822;SDS011;57119;52.516;13.508;2024-01-30T03:08:17;11.63;;;6.13;;
69822;SDS011;57119;52.516;13.508;2024-01-30T03:10:42;17.30;;;6.37;;
69822;SDS011;57119;52.516;13.508;2024-01-30T03:13:07;15.07;;;6.50;;
69822;SDS011;57119;52.516;13.508;2024-01-30T03:15:33;15.40;;;7.00;;
69822;SDS011;57119;52.516;13.508;2024-01-30T03:17:58;15.40;;;6.37;;
69822;SDS011;57119;52.516;13.508;2024-01-30T03:20:23;14.43;;;6.13;;
69822;SDS011;57119;52.516;13.508;2024-01-30T03:22:49;15.60;;;5.80;;
69822;SDS011;57119;52.516;13.508;2024-01-30T03:25:14;14.80;;;6.50;;
69822;SDS011;57119;52.516;13.508;2024-01-30T03:27:40;16.73;;;6.20;;
69822;SDS011;57119;52.516;13.508;2024-01-30T03:30:05;15.10;;;7.03;;
69822;SDS011;57119;52.516;13.508;2024-01-30T03:32:31;15.00;;;6.57;;
69822;SDS011;57119;52.516;13.508;2024-01-30T03:34:56;13.82;;;5.90;;
69822;SDS011;57119;52.516;13.508;2024-01-30T03:37:23;14.10;;;6.07;;
69822;SDS011;57119;52.516;13.508;2024-01-30T03:39:48;17.50;;;5.95;;
69822;SDS011;57119;52.516;13.508;2024-01-30T03:42:13;12.53;;;5.93;;
69822;SDS011;57119;52.516;13.508;2024-01-30T03:44:39;17.40;;;6.37;;
69822;SDS011;57119;52.516;13.508;2024-01-30T03:47:04;14.40;;;5.70;;
69822;SDS011;57119;52.516;13.508;2024-01-30T03:49:30;13.63;;;5.80;;
69822;SDS011;57119;52.516;13.508;2024-01-30T03:51:55;14.60;;;5.27;;
69822;SDS011;57119;52.516;13.508;2024-01-30T03:54:20;13.20;;;5.15;;
69822;SDS011;57119;52.516;13.508;2024-01-30T03:56:46;14.83;;;5.33;;
69822;SDS011;57119;52.516;13.508;2024-01-30T03:59:12;13.83;;;5.50;;
69822;SDS011;57119;52.516;13.508;2024-01-30T04:01:37;13.50;;;5.70;;
69822;SDS011;57119;52.516;13.508;2024-01-30T04:04:02;16.20;;;5.70;;
69822;SDS011;57119;52.516;13.508;2024-01-30T04:06:28;15.53;;;6.30;;
69822;SDS011;57119;52.516;13.508;2024-01-30T04:08:53;16.00;;;6.10;;
69822;SDS011;57119;52.516;13.508;2024-01-30T04:11:18;13.80;;;6.07;;
69822;SDS011;57119;52.516;13.508;2024-01-30T04:13:44;16.48;;;5.68;;
69822;SDS011;57119;52.516;13.508;2024-01-30T04:16:19;14.20;;;5.55;;
69822;SDS011;57119;52.516;13.508;2024-01-30T04:18:47;15.80;;;5.93;;
69822;SDS011;57119;52.516;13.508;2024-01-30T04:21:13;13.00;;;5.60;;
69822;SDS011;57119;52.516;13.508;2024-01-30T04:23:39;13.27;;;5.67;;
69822;SDS011;57119;52.516;13.508;2024-01-30T04:26:05;13.57;;;5.55;;
69822;SDS011;57119;52.516;13.508;2024-01-30T04:28:30;14.23;;;5.77;;
69822;SDS011;57119;52.516;13.508;2024-01-30T04:30:56;14.83;;;5.80;;
69822;SDS011;57119;52.516;13.508;2024-01-30T04:33:21;15.33;;;5.93;;
69822;SDS011;57119;52.516;13.508;2024-01-30T04:35:47;14.23;;;5.20;;
69822;SDS011;57119;52.516;13.508;2024-01-30T04:38:12;14.55;;;5.18;;
69822;SDS011;57119;52.516;13.508;2024-01-30T04:40:38;15.93;;;5.77;;
69822;SDS011;57119;52.516;13.508;2024-01-30T04:43:04;13.95;;;5.40;;
69822;SDS011;57119;52.516;13.508;2024-01-30T04:45:29;16.85;;;5.70;;
69822;SDS011;57119;52.516;13.508;2024-01-30T04:47:54;14.47;;;5.93;;
69822;SDS011;57119;52.516;13.508;2024-01-30T04:50:20;14.37;;;6.00;;
69822;SDS011;57119;52.516;13.508;2024-01-30T04:52:45;14.20;;;6.03;;
69822;SDS011;57119;52.516;13.508;2024-01-30T04:55:10;16.40;;;6.10;;
69822;SDS011;57119;52.516;13.508;2024-01-30T04:57:36;14.95;;;5.97;;
69822;SDS011;57119;52.516;13.508;2024-01-30T05:00:01;14.00;;;5.67;;
69822;SDS011;57119;52.516;13.508;2024-01-30T05:02:28;13.27;;;5.95;;
69822;SDS011;57119;52.516;13.508;2024-01-30T05:04:53;14.37;;;6.33;;
69822;SDS011;57119;52.516;13.508;2024-01-30T05:07:19;13.47;;;6.63;;
69822;SDS011;57119;52.516;13.508;2024-01-30T05:09:44;15.30;;;5.87;;
69822;SDS011;57119;52.516;13.508;2024-01-30T05:12:09;16.57;;;6.37;;
69822;SDS011;57119;52.516;13.508;2024-01-30T05:14:35;15.00;;;5.90;;
69822;SDS011;57119;52.516;13.508;2024-01-30T05:17:00;18.58;;;7.07;;
69822;SDS011;57119;52.516;13.508;2024-01-30T05:19:25;14.67;;;6.07;;
69822;SDS011;57119;52.516;13.508;2024-01-30T05:21:51;16.53;;;6.10;;
69822;SDS011;57119;52.516;13.508;2024-01-30T05:24:16;11.60;;;5.47;;
69822;SDS011;57119;52.516;13.508;2024-01-30T05:26:41;16.30;;;6.40;;
69822;SDS011;57119;52.516;13.508;2024-01-30T05:29:07;14.90;;;6.43;;
69822;SDS011;57119;52.516;13.508;2024-01-30T05:31:33;16.13;;;6.60;;
69822;SDS011;57119;52.516;13.508;2024-01-30T05:34:01;13.73;;;6.22;;
69822;SDS011;57119;52.516;13.508;2024-01-30T05:36:26;14.53;;;6.80;;
69822;SDS011;57119;52.516;13.508;2024-01-30T05:38:52;18.60;;;6.70;;
69822;SDS011;57119;52.516;13.508;2024-01-30T05:41:17;19.85;;;7.10;;
69822;SDS011;57119;52.516;13.508;2024-01-30T05:43:43;19.77;;;6.63;;
69822;SDS011;57119;52.516;13.508;2024-01-30T05:46:08;18.00;;;7.50;;
69822;SDS011;57119;52.516;13.508;2024-01-30T05:48:34;19.05;;;6.43;;
69822;SDS011;57119;52.516;13.508;2024-01-30T05:51:00;15.88;;;6.10;;
69822;SDS011;57119;52.516;13.508;2024-01-30T05:53:26;13.23;;;6.05;;
69822;SDS011;57119;52.516;13.508;2024-01-30T05:55:51;16.30;;;6.63;;
69822;SDS011;57119;52.516;13.508;2024-01-30T05:58:17;15.63;;;5.72;;
69822;SDS011;57119;52.516;13.508;2024-01-30T06:00:42;17.73;;;7.38;;
69822;SDS011;57119;52.516;13.508;2024-01-30T06:03:07;16.23;;;5.93;;
69822;SDS011;57119;52.516;13.508;2024-01-30T06:05:33;14.90;;;6.70;;
69822;SDS011;57119;52.516;13.508;2024-01-30T06:07:58;15.10;;;6.50;;
69822;SDS011;57119;52.516;13.508;2024-01-30T06:10:24;15.93;;;6.30;;
69822;SDS011;57119;52.516;13.508;2024-01-30T06:12:49;13.53;;;6.20;;
69822;SDS011;57119;52.516;13.508;2024-01-30T06:15:14;15.43;;;6.55;;
69822;SDS011;57119;52.516;13.508;2024-01-30T06:17:40;18.80;;;6.65;;
69822;SDS011;57119;52.516;13.508;2024-01-30T06:20:05;14.97;;;6.67;;
69822;SDS011;57119;52.516;13.508;2024-01-30T06:22:31;16.38;;;6.55;;
69822;SDS011;57119;52.516;13.508;2024-01-30T06:24:57;19.70;;;7.10;;
69822;SDS011;57119;52.516;13.508;2024-01-30T06:27:22;15.90;;;6.57;;
69822;SDS011;57119;52.516;13.508;2024-01-30T06:29:47;17.60;;;7.25;;
69822;SDS011;57119;52.516;13.508;2024-01-30T06:32:13;14.63;;;6.40;;
69822;SDS011;57119;52.516;13.508;2024-01-30T06:34:38;16.93;;;6.73;;
69822;SDS011;57119;52.516;13.508;2024-01-30T06:37:05;18.95;;;6.57;;
69822;SDS011;57119;52.516;13.508;2024-01-30T06:39:30;20.50;;;7.13;;
69822;SDS011;57119;52.516;13.508;2024-01-30T06:41:56;15.60;;;7.23;;
69822;SDS011;57119;52.516;13.508;2024-01-30T06:44:21;16.45;;;7.35;;
69822;SDS011;57119;52.516;13.508;2024-01-30T06:46:47;16.33;;;6.50;;
69822;SDS011;57119;52.516;13.508;2024-01-30T06:49:12;15.70;;;6.53;;
69822;SDS011;57119;52.516;13.508;2024-01-30T06:51:37;18.20;;;6.10;;
69822;SDS011;57119;52.516;13.508;2024-01-30T06:54:03;14.33;;;6.37;;
69822;SDS011;57119;52.516;13.508;2024-01-30T06:56:28;15.18;;;5.80;;
69822;SDS011;57119;52.516;13.508;2024-01-30T06:58:54;17.37;;;6.50;;
69822;SDS011;57119;52.516;13.508;2024-01-30T07:01:19;18.00;;;7.07;;
69822;SDS011;57119;52.516;13.508;2024-01-30T07:03:45;16.25;;;6.70;;
69822;SDS011;57119;52.516;13.508;2024-01-30T07:06:11;16.70;;;7.00;;
69822;SDS011;57119;52.516;13.508;2024-01-30T07:08:36;16.70;;;7.05;;
69822;SDS011;57119;52.516;13.508;2024-01-30T07:11:04;19.00;;;6.63;;
69822;SDS011;57119;52.516;13.508;2024-01-30T07:13:30;16.17;;;6.65;;
69822;SDS011;57119;52.516;13.508;2024-01-30T07:15:55;17.13;;;7.80;;
69822;SDS011;57119;52.516;13.508;2024-01-30T07:18:20;16.33;;;6.60;;
69822;SDS011;57119;52.516;13.508;2024-01-30T07:20:46;19.10;;;6.90;;
69822;SDS011;57119;52.516;13.508;2024-01-30T07:23:12;14.98;;;6.90;;
69822;SDS011;57119;52.516;13.508;2024-01-30T07:25:41;21.13;;;6.70;;
69822;SDS011;57119;52.516;13.508;2024-01-30T07:28:07;21.17;;;7.20;;
69822;SDS011;57119;52.516;13.508;2024-01-30T07:30:35;18.58;;;6.63;;
69822;SDS011;57119;52.516;13.508;2024-01-30T07:33:00;18.13;;;6.87;;
69822;SDS011;57119;52.516;13.508;2024-01-30T07:35:25;17.17;;;7.40;;
69822;SDS011;57119;52.516;13.508;2024-01-30T07:37:51;20.45;;;6.90;;
69822;SDS011;57119;52.516;13.508;2024-01-30T07:40:16;26.10;;;6.82;;
69822;SDS011;57119;52.516;13.508;2024-01-30T07:42:42;15.87;;;6.80;;
69822;SDS011;57119;52.516;13.508;2024-01-30T07:45:08;19.50;;;6.28;;
69822;SDS011;57119;52.516;13.508;2024-01-30T07:47:33;18.73;;;6.57;;
69822;SDS011;57119;52.516;13.508;2024-01-30T07:49:59;18.00;;;7.43;;
69822;SDS011;57119;52.516;13.508;2024-01-30T07:52:24;15.67;;;5.93;;
69822;SDS011;57119;52.516;13.508;2024-01-30T07:54:50;18.40;;;6.50;;
69822;SDS011;57119;52.516;13.508;2024-01-30T07:57:16;16.93;;;7.00;;
69822;SDS011;57119;52.516;13.508;2024-01-30T07:59:42;13.05;;;5.72;;
69822;SDS011;57119;52.516;13.508;2024-01-30T08:02:14;17.15;;;6.18;;
69822;SDS011;57119;52.516;13.508;2024-01-30T08:04:39;16.83;;;7.05;;
69822;SDS011;57119;52.516;13.508;2024-01-30T08:07:05;19.13;;;6.93;;
69822;SDS011;57119;52.516;13.508;2024-01-30T08:09:30;17.40;;;6.47;;
69822;SDS011;57119;52.516;13.508;2024-01-30T08:11:56;16.33;;;7.30;;
69822;SDS011;57119;52.516;13.508;2024-01-30T08:14:21;17.07;;;6.90;;
69822;SDS011;57119;52.516;13.508;2024-01-30T08:16:47;19.57;;;7.73;;
69822;SDS011;57119;52.516;13.508;2024-01-30T08:19:14;17.47;;;6.73;;
69822;SDS011;57119;52.516;13.508;2024-01-30T08:21:39;16.60;;;6.95;;
69822;SDS011;57119;52.516;13.508;2024-01-30T08:24:05;17.33;;;7.00;;
69822;SDS011;57119;52.516;13.508;2024-01-30T08:26:31;17.33;;;7.38;;
69822;SDS011;57119;52.516;13.508;2024-01-30T08:28:57;17.48;;;7.25;;
69822;SDS011;57119;52.516;13.508;2024-01-30T08:31:23;17.57;;;7.13;;
69822;SDS011;57119;52.516;13.508;2024-01-30T08:33:48;15.02;;;7.15;;
69822;SDS011;57119;52.516;13.508;2024-01-30T08:36:14;18.57;;;7.77;;
69822;SDS011;57119;52.516;13.508;2024-01-30T08:38:40;18.98;;;7.55;;
69822;SDS011;57119;52.516;13.508;2024-01-30T08:41:06;16.83;;;7.23;;
69822;SDS011;57119;52.516;13.508;2024-01-30T08:43:32;16.77;;;6.82;;
69822;SDS011;57119;52.516;13.508;2024-01-30T08:46:00;15.60;;;7.73;;
69822;SDS011;57119;52.516;13.508;2024-01-30T08:48:26;16.88;;;7.10;;
69822;SDS011;57119;52.516;13.508;2024-01-30T08:50:51;17.37;;;7.53;;
69822;SDS011;57119;52.516;13.508;2024-01-30T08:53:17;15.83;;;7.27;;
69822;SDS011;57119;52.516;13.508;2024-01-30T08:55:42;17.97;;;8.03;;
69822;SDS011;57119;52.516;13.508;2024-01-30T08:58:07;17.23;;;7.07;;
69822;SDS011;57119;52.516;13.508;2024-01-30T09:00:33;19.67;;;7.57;;
69822;SDS011;57119;52.516;13.508;2024-01-30T09:02:58;16.13;;;6.87;;
69822;SDS011;57119;52.516;13.508;2024-01-30T09:05:24;14.73;;;6.73;;
69822;SDS011;57119;52.516;13.508;2024-01-30T09:07:49;13.83;;;7.70;;
69822;SDS011;57119;52.516;13.508;2024-01-30T09:10:14;19.67;;;8.02;;
69822;SDS011;57119;52.516;13.508;2024-01-30T09:12:40;16.33;;;7.00;;
69822;SDS011;57119;52.516;13.508;2024-01-30T09:15:06;13.70;;;6.85;;
69822;SDS011;57119;52.516;13.508;2024-01-30T09:17:31;16.07;;;7.07;;
69822;SDS011;57119;52.516;13.508;2024-01-30T09:19:58;14.20;;;7.25;;
69822;SDS011;57119;52.516;13.508;2024-01-30T09:22:23;17.07;;;7.90;;
69822;SDS011;57119;52.516;13.508;2024-01-30T09:24:48;17.80;;;6.90;;
69822;SDS011;57119;52.516;13.508;2024-01-30T09:27:14;13.25;;;7.15;;
69822;SDS011;57119;52.516;13.508;2024-01-30T09:29:39;15.33;;;6.87;;
69822;SDS011;57119;52.516;13.508;2024-01-30T09:32:05;17.40;;;7.87;;
69822;SDS011;57119;52.516;13.508;2024-01-30T09:34:31;16.77;;;7.20;;
69822;SDS011;57119;52.516;13.508;2024-01-30T09:36:57;15.77;;;7.17;;
69822;SDS011;57119;52.516;13.508;2024-01-30T09:39:23;17.35;;;6.75;;
69822;SDS011;57119;52.516;13.508;2024-01-30T09:41:49;15.80;;;7.60;;
69822;SDS011;57119;52.516;13.508;2024-01-30T09:44:24;14.52;;;6.88;;
69822;SDS011;57119;52.516;13.508;2024-01-30T09:46:53;16.02;;;7.93;;
69822;SDS011;57119;52.516;13.508;2024-01-30T09:49:19;14.93;;;8.13;;
69822;SDS011;57119;52.516;13.508;2024-01-30T09:51:45;17.17;;;7.07;;
69822;SDS011;57119;52.516;13.508;2024-01-30T09:54:13;15.98;;;7.43;;
69822;SDS011;57119;52.516;13.508;2024-01-30T09:56:39;14.43;;;6.67;;
69822;SDS011;57119;52.516;13.508;2024-01-30T09:59:04;15.50;;;7.35;;
69822;SDS011;57119;52.516;13.508;2024-01-30T10:01:29;14.63;;;5.63;;
69822;SDS011;57119;52.516;13.508;2024-01-30T10:03:56;17.92;;;6.53;;
69822;SDS011;57119;52.516;13.508;2024-01-30T10:06:22;13.93;;;7.00;;
69822;SDS011;57119;52.516;13.508;2024-01-30T10:08:49;15.90;;;6.97;;
69822;SDS011;57119;52.516;13.508;2024-01-30T10:11:15;16.67;;;6.73;;
69822;SDS011;57119;52.516;13.508;2024-01-30T10:13:40;17.80;;;6.50;;
69822;SDS011;57119;52.516;13.508;2024-01-30T10:16:06;15.70;;;6.87;;
69822;SDS011;57119;52.516;13.508;2024-01-30T10:18:31;15.65;;;6.85;;
69822;SDS011;57119;52.516;13.508;2024-01-30T10:21:00;15.10;;;6.20;;
69822;SDS011;57119;52.516;13.508;2024-01-30T10:23:26;15.33;;;5.83;;
69822;SDS011;57119;52.516;13.508;2024-01-30T10:25:51;12.53;;;5.37;;
69822;SDS011;57119;52.516;13.508;2024-01-30T10:28:17;13.00;;;5.93;;
69822;SDS011;57119;52.516;13.508;2024-01-30T10:30:43;16.57;;;6.07;;
69822;SDS011;57119;52.516;13.508;2024-01-30T10:33:08;13.38;;;5.57;;
69822;SDS011;57119;52.516;13.508;2024-01-30T10:35:34;13.30;;;5.80;;
69822;SDS011;57119;52.516;13.508;2024-01-30T10:38:00;13.80;;;6.40;;
69822;SDS011;57119;52.516;13.508;2024-01-30T10:40:28;15.27;;;6.00;;
69822;SDS011;57119;52.516;13.508;2024-01-30T10:42:54;14.32;;;5.88;;
69822;SDS011;57119;52.516;13.508;2024-01-30T10:45:21;17.08;;;5.30;;
69822;SDS011;57119;52.516;13.508;2024-01-30T10:47:50;13.63;;;5.50;;
69822;SDS011;57119;52.516;13.508;2024-01-30T10:50:18;16.10;;;5.30;;
69822;SDS011;57119;52.516;13.508;2024-01-30T10:52:44;14.23;;;5.60;;
69822;SDS011;57119;52.516;13.508;2024-01-30T10:55:11;13.30;;;5.25;;
69822;SDS011;57119;52.516;13.508;2024-01-30T10:57:38;13.57;;;5.30;;
69822;SDS011;57119;52.516;13.508;2024-01-30T11:00:10;12.47;;;5.43;;
69822;SDS011;57119;52.516;13.508;2024-01-30T11:02:44;12.50;;;5.63;;
69822;SDS011;57119;52.516;13.508;2024-01-30T11:05:10;11.63;;;5.32;;
69822;SDS011;57119;52.516;13.508;2024-01-30T11:07:38;14.30;;;6.05;;
69822;SDS011;57119;52.516;13.508;2024-01-30T11:10:06;12.57;;;5.03;;
69822;SDS011;57119;52.516;13.508;2024-01-30T11:12:37;10.60;;;5.13;;
69822;SDS011;57119;52.516;13.508;2024-01-30T11:15:12;11.40;;;4.78;;
69822;SDS011;57119;52.516;13.508;2024-01-30T11:17:40;13.20;;;4.80;;
69822;SDS011;57119;52.516;13.508;2024-01-30T11:20:21;11.13;;;4.75;;
69822;SDS011;57119;52.516;13.508;2024-01-30T11:22:47;13.53;;;4.97;;
69822;SDS011;57119;52.516;13.508;2024-01-30T11:25:16;10.45;;;3.75;;
69822;SDS011;57119;52.516;13.508;2024-01-30T11:27:43;9.73;;;4.43;;
69822;SDS011;57119;52.516;13.508;2024-01-30T11:30:09;9.90;;;4.40;;
69822;SDS011;57119;52.516;13.508;2024-01-30T11:32:35;11.05;;;4.63;;
69822;SDS011;57119;52.516;13.508;2024-01-30T11:35:05;13.20;;;5.37;;
69822;SDS011;57119;52.516;13.508;2024-01-30T11:37:36;12.55;;;5.13;;
69822;SDS011;57119;52.516;13.508;2024-01-30T11:40:04;12.02;;;4.80;;
69822;SDS011;57119;52.516;13.508;2024-01-30T11:42:30;10.85;;;4.35;;
69822;SDS011;57119;52.516;13.508;2024-01-30T11:44:59;9.23;;;4.03;;
69822;SDS011;57119;52.516;13.508;2024-01-30T11:47:25;12.97;;;4.47;;
69822;SDS011;57119;52.516;13.508;2024-01-30T11:49:51;11.15;;;4.72;;
69822;SDS011;57119;52.516;13.508;2024-01-30T11:52:16;10.93;;;4.83;;
69822;SDS011;57119;52.516;13.508;2024-01-30T11:54:42;9.20;;;4.40;;
69822;SDS011;57119;52.516;13.508;2024-01-30T11:57:08;11.80;;;4.75;;
69822;SDS011;57119;52.516;13.508;2024-01-30T11:59:33;10.73;;;4.43;;
69822;SDS011;57119;52.516;13.508;2024-01-30T12:01:59;14.70;;;4.80;;
69822;SDS011;57119;52.516;13.508;2024-01-30T12:04:27;13.07;;;5.10;;
69822;SDS011;57119;52.516;13.508;2024-01-30T12:06:54;12.70;;;4.82;;
69822;SDS011;57119;52.516;13.508;2024-01-30T12:09:19;12.67;;;4.50;;
69822;SDS011;57119;52.516;13.508;2024-01-30T12:11:45;11.10;;;4.50;;
69822;SDS011;57119;52.516;13.508;2024-01-30T12:14:13;12.00;;;5.13;;
69822;SDS011;57119;52.516;13.508;2024-01-30T12:16:40;11.52;;;4.75;;
69822;SDS011;57119;52.516;13.508;2024-01-30T12:19:08;11.90;;;4.90;;
69822;SDS011;57119;52.516;13.508;2024-01-30T12:21:34;11.37;;;5.40;;
69822;SDS011;57119;52.516;13.508;2024-01-30T12:24:00;13.13;;;5.15;;
69822;SDS011;57119;52.516;13.508;2024-01-30T12:26:26;14.50;;;5.38;;
69822;SDS011;57119;52.516;13.508;2024-01-30T12:28:55;14.17;;;5.60;;
69822;SDS011;57119;52.516;13.508;2024-01-30T12:31:27;10.82;;;5.60;;
69822;SDS011;57119;52.516;13.508;2024-01-30T12:33:53;11.80;;;4.82;;
69822;SDS011;57119;52.516;13.508;2024-01-30T12:36:20;12.60;;;4.78;;
69822;SDS011;57119;52.516;13.508;2024-01-30T12:38:46;13.30;;;4.55;;
69822;SDS011;57119;52.516;13.508;2024-01-30T12:41:12;10.23;;;4.83;;
69822;SDS011;57119;52.516;13.508;2024-01-30T12:43:37;12.02;;;5.55;;
69822;SDS011;57119;52.516;13.508;2024-01-30T12:46:06;9.60;;;4.97;;
69822;SDS011;57119;52.516;13.508;2024-01-30T12:48:35;10.30;;;4.85;;
69822;SDS011;57119;52.516;13.508;2024-01-30T12:51:04;11.88;;;4.50;;
69822;SDS011;57119;52.516;13.508;2024-01-30T12:53:29;13.07;;;5.77;;
69822;SDS011;57119;52.516;13.508;2024-01-30T12:55:55;12.32;;;4.72;;
69822;SDS011;57119;52.516;13.508;2024-01-30T12:58:21;11.23;;;5.13;;
69822;SDS011;57119;52.516;13.508;2024-01-30T13:00:46;9.73;;;4.60;;
69822;SDS011;57119;52.516;13.508;2024-01-30T13:03:12;11.60;;;5.10;;
69822;SDS011;57119;52.516;13.508;2024-01-30T13:05:38;14.23;;;5.00;;
69822;SDS011;57119;52.516;13.508;2024-01-30T13:08:03;11.37;;;4.93;;
69822;SDS011;57119;52.516;13.508;2024-01-30T13:10:29;14.25;;;5.15;;
69822;SDS011;57119;52.516;13.508;2024-01-30T13:12:54;12.47;;;5.17;;
69822;SDS011;57119;52.516;13.508;2024-01-30T13:15:20;12.53;;;5.00;;
69822;SDS011;57119;52.516;13.508;2024-01-30T13:17:45;11.27;;;4.50;;
69822;SDS011;57119;52.516;13.508;2024-01-30T13:20:13;11.63;;;4.88;;
69822;SDS011;57119;52.516;13.508;2024-01-30T13:22:44;10.75;;;5.30;;
69822;SDS011;57119;52.516;13.508;2024-01-30T13:25:10;13.35;;;4.95;;
69822;SDS011;57119;52.516;13.508;2024-01-30T13:27:35;11.03;;;4.13;;
69822;SDS011;57119;52.516;13.508;2024-01-30T13:30:02;9.63;;;4.60;;
69822;SDS011;57119;52.516;13.508;2024-01-30T13:32:28;14.50;;;5.38;;
69822;SDS011;57119;52.516;13.508;2024-01-30T13:34:54;12.00;;;5.10;;
69822;SDS011;57119;52.516;13.508;2024-01-30T13:37:20;11.70;;;5.30;;
69822;SDS011;57119;52.516;13.508;2024-01-30T13:39:45;13.50;;;5.70;;
69822;SDS011;57119;52.516;13.508;2024-01-30T13:42:11;14.23;;;5.43;;
69822;SDS011;57119;52.516;13.508;2024-01-30T13:44:36;13.33;;;5.23;;
69822;SDS011;57119;52.516;13.508;2024-01-30T13:47:02;13.17;;;5.30;;
69822;SDS011;57119;52.516;13.508;2024-01-30T13:49:27;13.32;;;5.50;;
69822;SDS011;57119;52.516;13.508;2024-01-30T13:51:52;11.40;;;5.20;;
69822;SDS011;57119;52.516;13.508;2024-01-30T13:54:18;11.70;;;5.50;;
69822;SDS011;57119;52.516;13.508;2024-01-30T13:56:43;11.57;;;3.90;;
69822;SDS011;57119;52.516;13.508;2024-01-30T13:59:09;11.90;;;5.13;;
69822;SDS011;57119;52.516;13.508;2024-01-30T14:01:34;12.57;;;4.90;;
69822;SDS011;57119;52.516;13.508;2024-01-30T14:04:00;11.40;;;4.77;;
69822;SDS011;57119;52.516;13.508;2024-01-30T14:06:25;16.80;;;5.73;;
69822;SDS011;57119;52.516;13.508;2024-01-30T14:08:51;12.98;;;5.63;;
69822;SDS011;57119;52.516;13.508;2024-01-30T14:11:16;14.30;;;5.20;;
69822;SDS011;57119;52.516;13.508;2024-01-30T14:13:41;13.83;;;5.30;;